Pyron, Texas
Current Conditions -  °F | °C
As of 12:15 PM on Friday 24 Oct 2014 (Local Time) from KSWW Reporting Station
Clear Clear  
Wind Chill: 25°   Ceiling: Unl
Heat Index: 26°   Visibility: 10mi
Dew Point: 15°   Wind: 9mph
Humidity: 55%   Direction: 220°SW
Pressure: 30.22"   Gusts: NA
Location:  32.3875°N, 100.536°W
Report Text: KSWW 241715Z AUTO 22008KT 10SM CLR 25/15 A3022 RMK AO2 T02500153
Loading
Personal Weather Stations






























Interactive Weather Map
Tropical Storm Tracking
New forecast layout! Learn more

10-Day Weather Forecast

Advertisements
Track Severe Weather on mobile